Adams, NC

12:28 AM EDT on May 30, 2015 (GMT -0400)
Poplar Hill Drive / Cardinal Ln Boone | | Change Station
CLOSE
Current Station
Personal Weather Station
Location: Boone, NC
Elevation: 3333 ft
Nearby Weather Stations

Elev 3333 ft 36.21 °N, 81.68 °W | Updated 46 seconds ago

Mostly Cloudy
Mostly Cloudy
59.1 °F
Feels Like 59.1 °F
N
0.0
Wind Variable Wind from NE
Gusts 0.0 mph

Today
High -- | Low -- °F
--% Chance of Precip.
Yesterday
High -- | Low -- °F
Precip. -- in
6:11 AM 8:37 PM
Waxing Gibbous, 88% visible
Pressure 30.30 in
Visibility 3.0 miles
Clouds Mostly Cloudy 500 ft
Mostly Cloudy 3300 ft
Dew Point 58 °F
Humidity 97%
Rainfall 0.00 in
Snow Depth Not available.
UV 0.0 out of 12
Pollen 6.50 out of 12
Air Quality Not available.
Flu Activity No Activity
METAR KTNB 300415Z AUTO 00000KT 3SM BR BKN005 BKN033 14/14 A3030 RMK AO2 T01400140

More Conditions Fewer Conditions

Pressure 30.30 in
Visibility 3.0 miles
Clouds Mostly Cloudy 500 ft
Mostly Cloudy 3300 ft
Dew Point 58 °F
Humidity 97%
Rainfall 0.00 in
Snow Depth Not available.
UV 0.0 out of 12
Pollen 6.50 out of 12
Air Quality Not available.
Flu Activity No Activity
METAR KTNB 300415Z AUTO 00000KT 3SM BR BKN005 BKN033 14/14 A3030 RMK AO2 T01400140

More Conditions Fewer Conditions

Nowcast | as of 11:10 PM EDT on May 29, 2015

An area of showers with moderate to heavy rain will move northwest at around 20 mph through the mountains and foothills of northwest North Carolina into the early morning hours...mainly between Boone...West Jefferson...and Wilkesboro. Localized rainfall amounts may approach one half to one inch in a short period of time...possibly resulting in ponding of water and localized flooding in areas of poor drainage. Rain is expected to diminish or dissipate over the area by or shortly after 100 am EDT.

×

10-Day Weather Forecast

Almanac

Astronomy

May. 30, 2015 Rise Set
Actual Time
Civil Twilight
Nautical Twilight
Astronomical Twilight
Moon
Length of Visible Light
Length of Day
Tomorrow will be .
, % of the Moon is Illuminated

Today's Extremes

State Highs State Lows

Community

WunderPhotos

Upload Photos

1,825,451 photos uploaded!

WunderBlogs® & News

Nearby

Air Quality

  Air Quality AQ Index Pollutant
Not available.

Snow Depth

Station Depth Elevation

Earthquake Activity

City Distance Mag. Time & Date
Minimum magnitude displayed is 2.5.

Coastal Water Temperatures

Place Temperature

Stations

Nearby Weather Stations

Station Location Temp. Windchill Dew Point Humidity Wind Precip. Elev Updated Type